Wetterdaten: Woche 11.03.13 - 17.03.13 (KW11)
Datum Zeit Temp. A. Feuchte A. Luftdruck Regen Wind Richtung Taupunkt Windchill Windben
11.03.2013 00:00 -5,0 C 88 % 1006,9 hPa 0,0 l/m 9,7 km/h (2 Bft) N-NO -6,6 C -8,6 C 13,6 km/h (3 Bft)
11.03.2013 01:00 -5,5 C 89 % 1007,2 hPa 0,0 l/m 8,0 km/h (2 Bft) N-NO -7,0 C -7,4 C 11,4 km/h (2 Bft)
11.03.2013 02:00 -5,9 C 90 % 1007,2 hPa 0,0 l/m 5,5 km/h (2 Bft) N-NO -7,3 C -6,0 C 7,6 km/h (2 Bft)
11.03.2013 03:00 -6,1 C 91 % 1007,0 hPa 0,0 l/m 5,6 km/h (2 Bft) N-NO -7,4 C -6,1 C 7,9 km/h (2 Bft)
11.03.2013 04:00 -6,0 C 90 % 1007,1 hPa 0,0 l/m 5,0 km/h (1 Bft) N-NO -7,4 C -6,0 C 5,7 km/h (2 Bft)
11.03.2013 05:00 -6,0 C 90 % 1007,2 hPa 0,0 l/m 4,8 km/h (1 Bft) N-NO -7,4 C -6,0 C 4,8 km/h (1 Bft)
11.03.2013 06:00 -6,0 C 90 % 1007,4 hPa 0,0 l/m 4,8 km/h (1 Bft) N-NO -7,4 C -6,0 C 4,8 km/h (1 Bft)
11.03.2013 07:00 -6,0 C 90 % 1007,8 hPa 0,0 l/m 4,8 km/h (1 Bft) N-NO -7,4 C -6,0 C 4,8 km/h (1 Bft)
11.03.2013 08:00 -6,0 C 90 % 1008,2 hPa 0,0 l/m 4,8 km/h (1 Bft) N-NO -7,4 C -6,0 C 4,8 km/h (1 Bft)
11.03.2013 09:00 -6,0 C 90 % 1008,4 hPa 0,0 l/m 4,8 km/h (1 Bft) N-NO -7,4 C -6,0 C 4,8 km/h (1 Bft)
11.03.2013 10:00 -6,0 C 90 % 1008,5 hPa 0,0 l/m 4,8 km/h (1 Bft) N-NO -7,4 C -6,0 C 4,8 km/h (1 Bft)
11.03.2013 11:00 -4,7 C 86 % 1008,5 hPa 0,0 l/m 5,7 km/h (2 Bft) N-NO -6,8 C -5,0 C 7,4 km/h (2 Bft)
11.03.2013 12:00 -2,9 C 78 % 1008,6 hPa 0,0 l/m 10,6 km/h (2 Bft) NO -6,2 C -7,2 C 17,0 km/h (3 Bft)
11.03.2013 13:00 -3,0 C 76 % 1008,7 hPa 0,0 l/m 9,4 km/h (2 Bft) NO -6,6 C -6,2 C 16,1 km/h (3 Bft)
11.03.2013 14:00 -2,8 C 77 % 1008,6 hPa 0,0 l/m 10,1 km/h (2 Bft) NO -6,2 C -6,5 C 15,8 km/h (3 Bft)
11.03.2013 15:00 -2,9 C 81 % 1008,6 hPa 0,0 l/m 9,8 km/h (2 Bft) NO -5,6 C -6,4 C 15,6 km/h (3 Bft)
11.03.2013 16:00 -2,8 C 79 % 1008,6 hPa 0,0 l/m 9,1 km/h (2 Bft) NO -5,9 C -5,7 C 11,0 km/h (2 Bft)
11.03.2013 17:00 -2,8 C 79 % 1008,6 hPa 0,0 l/m 9,7 km/h (2 Bft) NO -5,9 C -6,3 C 9,7 km/h (2 Bft)
11.03.2013 18:00 -2,8 C 79 % 1008,9 hPa 0,0 l/m 9,7 km/h (2 Bft) NO -5,9 C -6,3 C 9,7 km/h (2 Bft)
11.03.2013 19:00 -5,1 C 89 % 1009,1 hPa 0,0 l/m 4,0 km/h (1 Bft) NO -6,7 C -5,1 C 6,0 km/h (2 Bft)
11.03.2013 20:00 -4,2 C 92 % 1009,4 hPa 0,0 l/m 4,6 km/h (1 Bft) NO -5,3 C -4,2 C 6,7 km/h (2 Bft)
11.03.2013 21:00 -3,8 C 92 % 1009,4 hPa 0,0 l/m 9,1 km/h (2 Bft) O-NO -4,8 C -6,7 C 11,8 km/h (2 Bft)
11.03.2013 22:00 -3,8 C 92 % 1009,5 hPa 0,0 l/m 11,3 km/h (2 Bft) O-NO -4,9 C -8,8 C 11,3 km/h (2 Bft)
11.03.2013 23:00 -3,8 C 92 % 1009,5 hPa 0,0 l/m 11,3 km/h (2 Bft) O-NO -4,9 C -8,8 C 11,3 km/h (2 Bft)
12.03.2013 00:00 -3,8 C 92 % 1009,6 hPa 0,0 l/m 11,3 km/h (2 Bft) O-NO -4,9 C -8,8 C 11,3 km/h (2 Bft)
12.03.2013 01:00 -3,8 C 92 % 1009,5 hPa 0,0 l/m 11,3 km/h (2 Bft) O-NO -4,9 C -8,8 C 11,3 km/h (2 Bft)
12.03.2013 02:00 -2,6 C 92 % 1009,1 hPa 0,0 l/m 10,9 km/h (2 Bft) O-NO -3,8 C -7,2 C 9,3 km/h (2 Bft)
12.03.2013 03:00 0,9 C 91 % 1008,8 hPa 0,0 l/m 9,7 km/h (2 Bft) N -0,4 C -2,2 C 9,7 km/h (2 Bft)
12.03.2013 04:00 0,9 C 91 % 1008,4 hPa 0,0 l/m 9,7 km/h (2 Bft) N -0,4 C -2,2 C 9,7 km/h (2 Bft)
12.03.2013 05:00 0,9 C 91 % 1008,4 hPa 0,0 l/m 9,7 km/h (2 Bft) N -0,4 C -2,2 C 9,7 km/h (2 Bft)
12.03.2013 06:00 -3,8 C 91 % 1008,1 hPa 0,0 l/m 10,8 km/h (2 Bft) NO -5,0 C -8,3 C 11,3 km/h (2 Bft)
12.03.2013 07:00 -6,1 C 91 % 1008,2 hPa 0,0 l/m 11,2 km/h (2 Bft) NO -7,3 C -11,3 C 11,4 km/h (2 Bft)
12.03.2013 08:00 -5,8 C 89 % 1008,4 hPa 0,0 l/m 10,5 km/h (2 Bft) NO -7,3 C -10,3 C 15,2 km/h (3 Bft)
12.03.2013 09:00 -5,4 C 87 % 1008,1 hPa 0,0 l/m 11,4 km/h (2 Bft) NO -7,1 C -10,7 C 16,0 km/h (3 Bft)
12.03.2013 10:00 -4,3 C 86 % 1008,0 hPa 0,0 l/m 13,3 km/h (3 Bft) NO -6,3 C -10,9 C 18,6 km/h (3 Bft)
12.03.2013 11:00 -3,8 C 84 % 1007,8 hPa 0,0 l/m 12,7 km/h (3 Bft) NO -6,1 C -9,8 C 17,8 km/h (3 Bft)
12.03.2013 12:00 -3,1 C 81 % 1007,5 hPa 0,0 l/m 10,1 km/h (2 Bft) O-NO -5,9 C -6,9 C 16,4 km/h (3 Bft)
12.03.2013 13:00 -2,7 C 79 % 1007,0 hPa 0,0 l/m 9,4 km/h (2 Bft) NO -5,8 C -5,8 C 14,4 km/h (3 Bft)
12.03.2013 14:00 -2,3 C 75 % 1006,6 hPa 0,0 l/m 10,2 km/h (2 Bft) NO -6,2 C -6,2 C 14,9 km/h (3 Bft)
12.03.2013 15:00 -2,3 C 72 % 1006,3 hPa 0,0 l/m 9,7 km/h (2 Bft) NO -6,6 C -5,7 C 14,4 km/h (3 Bft)
12.03.2013 16:00 -2,5 C 72 % 1006,1 hPa 0,0 l/m 11,3 km/h (2 Bft) NO -6,8 C -7,2 C 15,4 km/h (3 Bft)
12.03.2013 17:00 -2,9 C 72 % 1006,0 hPa 0,0 l/m 7,5 km/h (2 Bft) NO -7,2 C -4,2 C 11,0 km/h (2 Bft)
12.03.2013 18:00 -4,3 C 75 % 1006,0 hPa 0,0 l/m 3,3 km/h (1 Bft) NO -8,0 C -4,4 C 4,7 km/h (1 Bft)
12.03.2013 19:00 -6,1 C 86 % 1005,9 hPa 0,0 l/m 0,0 km/h (0 Bft) N -8,0 C -6,1 C 0,0 km/h (0 Bft)
12.03.2013 20:00 -7,5 C 90 % 1005,8 hPa 0,0 l/m 0,0 km/h (0 Bft) N -8,8 C -7,5 C 0,0 km/h (0 Bft)
12.03.2013 21:00 -8,6 C 91 % 1005,9 hPa 0,0 l/m 0,0 km/h (0 Bft) N -9,7 C -8,6 C 0,0 km/h (0 Bft)
12.03.2013 22:00 -9,3 C 92 % 1005,9 hPa 0,0 l/m 0,0 km/h (0 Bft) N -10,3 C -9,3 C 0,0 km/h (0 Bft)
12.03.2013 23:00 -8,9 C 90 % 1005,9 hPa 0,0 l/m 0,2 km/h (0 Bft) N-NW -10,3 C -8,9 C 0,3 km/h (0 Bft)
13.03.2013 00:00 -9,8 C 90 % 1005,8 hPa 0,0 l/m 0,6 km/h (0 Bft) N-NW -11,1 C -9,8 C 1,1 km/h (0 Bft)
13.03.2013 01:00 -11,0 C 92 % 1005,6 hPa 0,0 l/m 0,1 km/h (0 Bft) N -12,0 C -11,0 C 0,8 km/h (0 Bft)
13.03.2013 02:00 -11,7 C 92 % 1005,5 hPa 0,0 l/m 0,0 km/h (0 Bft) N -12,7 C -11,7 C 0,0 km/h (0 Bft)
13.03.2013 03:00 -12,2 C 92 % 1005,3 hPa 0,0 l/m 0,0 km/h (0 Bft) N -13,3 C -12,2 C 0,0 km/h (0 Bft)
13.03.2013 04:00 -12,9 C 92 % 1005,1 hPa 0,0 l/m 0,0 km/h (0 Bft) N -14,0 C -12,9 C 0,0 km/h (0 Bft)
13.03.2013 05:00 -13,9 C 91 % 1005,1 hPa 0,0 l/m 0,0 km/h (0 Bft) N -15,0 C -13,9 C 0,0 km/h (0 Bft)
13.03.2013 06:00 -14,4 C 91 % 1005,2 hPa 0,0 l/m 0,0 km/h (0 Bft) N -15,6 C -14,4 C 0,0 km/h (0 Bft)
13.03.2013 07:00 -12,5 C 91 % 1005,6 hPa 0,0 l/m 0,0 km/h (0 Bft) N -13,6 C -12,5 C 0,0 km/h (0 Bft)
13.03.2013 08:00 -9,6 C 91 % 1005,9 hPa 0,0 l/m 0,2 km/h (0 Bft) N -10,8 C -9,6 C 1,2 km/h (1 Bft)
13.03.2013 09:00 -6,5 C 87 % 1005,9 hPa 0,0 l/m 0,8 km/h (0 Bft) SW -8,4 C -6,5 C 1,7 km/h (1 Bft)
13.03.2013 10:00 -3,3 C 76 % 1006,1 hPa 0,0 l/m 2,3 km/h (1 Bft) S -6,9 C -3,3 C 5,5 km/h (2 Bft)
13.03.2013 11:00 -1,5 C 68 % 1006,3 hPa 0,0 l/m 2,1 km/h (1 Bft) S-SW -6,7 C -1,5 C 5,6 km/h (2 Bft)
13.03.2013 12:00 -0,5 C 62 % 1006,2 hPa 0,6 l/m 2,1 km/h (1 Bft) S-SW -6,9 C -0,5 C 6,1 km/h (2 Bft)
13.03.2013 13:00 0,0 C 59 % 1006,0 hPa 0,4 l/m 2,6 km/h (1 Bft) S-SW -7,0 C 0,0 C 7,1 km/h (2 Bft)
13.03.2013 14:00 0,7 C 58 % 1005,8 hPa 0,2 l/m 3,1 km/h (1 Bft) SW -6,5 C 0,7 C 7,5 km/h (2 Bft)
13.03.2013 15:00 1,0 C 56 % 1005,8 hPa 0,0 l/m 2,4 km/h (1 Bft) W -6,9 C 1,0 C 7,4 km/h (2 Bft)
13.03.2013 16:00 0,5 C 57 % 1005,7 hPa 0,2 l/m 1,9 km/h (1 Bft) S-SW -7,0 C 0,5 C 5,2 km/h (1 Bft)
13.03.2013 17:00 -0,2 C 62 % 1006,0 hPa 0,0 l/m 1,7 km/h (1 Bft) SW -6,6 C -0,2 C 2,9 km/h (1 Bft)
13.03.2013 18:00 -0,2 C 62 % 1006,5 hPa 0,0 l/m 1,6 km/h (1 Bft) SW -6,6 C -0,2 C 1,6 km/h (1 Bft)
13.03.2013 19:00 -1,6 C 71 % 1007,0 hPa 0,0 l/m 0,6 km/h (0 Bft) SW -6,2 C -1,6 C 0,7 km/h (0 Bft)
13.03.2013 20:00 -3,6 C 81 % 1007,1 hPa 0,0 l/m 0,0 km/h (0 Bft) N -6,4 C -3,6 C 0,0 km/h (0 Bft)
13.03.2013 21:00 -5,5 C 87 % 1007,6 hPa 0,0 l/m 0,0 km/h (0 Bft) N -7,3 C -5,5 C 0,0 km/h (0 Bft)
13.03.2013 22:00 -4,3 C 88 % 1007,7 hPa 0,0 l/m 0,0 km/h (0 Bft) N -5,9 C -4,3 C 0,0 km/h (0 Bft)
13.03.2013 23:00 -3,5 C 87 % 1007,8 hPa 0,0 l/m 0,0 km/h (0 Bft) N -5,3 C -3,5 C 0,0 km/h (0 Bft)
14.03.2013 00:00 -3,4 C 88 % 1007,9 hPa 0,0 l/m 0,0 km/h (0 Bft) N -5,1 C -3,4 C 0,0 km/h (0 Bft)
14.03.2013 01:00 -3,4 C 88 % 1008,2 hPa 0,0 l/m 0,2 km/h (0 Bft) S-SW -5,0 C -3,4 C 0,8 km/h (0 Bft)
14.03.2013 02:00 -3,2 C 90 % 1008,2 hPa 0,0 l/m 0,0 km/h (0 Bft) W-SW -4,6 C -3,2 C 0,3 km/h (0 Bft)
14.03.2013 03:00 -2,8 C 91 % 1008,2 hPa 0,0 l/m 0,6 km/h (0 Bft) W-NW -4,0 C -2,8 C 2,9 km/h (1 Bft)
14.03.2013 04:00 -2,8 C 92 % 1008,2 hPa 0,0 l/m 0,0 km/h (0 Bft) N -3,9 C -2,8 C 0,1 km/h (0 Bft)
14.03.2013 05:00 -2,8 C 92 % 1008,2 hPa 0,0 l/m 0,0 km/h (0 Bft) N -3,9 C -2,8 C 0,0 km/h (0 Bft)
14.03.2013 06:00 -3,7 C 94 % 1008,5 hPa 0,0 l/m 1,9 km/h (1 Bft) W-NW -4,6 C -3,7 C 4,1 km/h (1 Bft)
14.03.2013 07:00 -4,0 C 95 % 1009,1 hPa 0,0 l/m 2,5 km/h (1 Bft) NW -4,7 C -4,0 C 5,3 km/h (1 Bft)
14.03.2013 08:00 -3,4 C 94 % 1009,7 hPa 0,0 l/m 1,5 km/h (1 Bft) N -4,2 C -3,4 C 3,3 km/h (1 Bft)
14.03.2013 09:00 -2,9 C 94 % 1010,1 hPa 0,0 l/m 1,3 km/h (1 Bft) W -3,8 C -2,9 C 4,8 km/h (1 Bft)
14.03.2013 10:00 -2,2 C 92 % 1010,6 hPa 0,0 l/m 1,3 km/h (1 Bft) SW -3,3 C -2,2 C 4,5 km/h (1 Bft)
14.03.2013 11:00 -0,9 C 88 % 1010,9 hPa 0,0 l/m 1,2 km/h (1 Bft) S-SW -2,6 C -0,9 C 3,7 km/h (1 Bft)
14.03.2013 12:00 0,5 C 82 % 1011,0 hPa 0,4 l/m 0,8 km/h (0 Bft) W-NW -2,2 C 0,5 C 2,9 km/h (1 Bft)
14.03.2013 13:00 1,5 C 71 % 1010,7 hPa 1,0 l/m 1,7 km/h (1 Bft) S-SW -3,2 C 1,5 C 4,8 km/h (1 Bft)
14.03.2013 14:00 -0,6 C 84 % 1010,7 hPa 0,2 l/m 1,9 km/h (1 Bft) W-NW -3,0 C -0,6 C 5,3 km/h (1 Bft)
14.03.2013 15:00 -1,8 C 92 % 1010,9 hPa 0,0 l/m 5,1 km/h (1 Bft) N-NW -2,9 C -2,8 C 7,8 km/h (2 Bft)
14.03.2013 16:00 -2,1 C 93 % 1011,3 hPa 0,0 l/m 6,7 km/h (2 Bft) N-NW -3,1 C -3,1 C 10,1 km/h (2 Bft)
14.03.2013 17:00 -2,1 C 93 % 1011,8 hPa 0,0 l/m 5,4 km/h (2 Bft) N-NW -3,1 C -2,2 C 7,8 km/h (2 Bft)
14.03.2013 18:00 -3,3 C 92 % 1012,4 hPa 0,0 l/m 3,6 km/h (1 Bft) N -4,3 C -3,3 C 5,5 km/h (2 Bft)
14.03.2013 19:00 -4,7 C 93 % 1013,0 hPa 0,0 l/m 0,0 km/h (0 Bft) N -5,6 C -4,7 C 0,3 km/h (0 Bft)
14.03.2013 20:00 -5,2 C 94 % 1013,4 hPa 0,0 l/m 0,0 km/h (0 Bft) N -6,0 C -5,2 C 0,4 km/h (0 Bft)
14.03.2013 21:00 -5,4 C 93 % 1013,6 hPa 0,0 l/m 0,2 km/h (0 Bft) NW -6,4 C -5,4 C 0,8 km/h (0 Bft)
14.03.2013 22:00 -5,7 C 91 % 1013,8 hPa 0,0 l/m 0,3 km/h (0 Bft) N -6,9 C -5,7 C 1,9 km/h (1 Bft)
14.03.2013 23:00 -5,6 C 91 % 1013,8 hPa 0,0 l/m 0,2 km/h (0 Bft) N -6,8 C -5,6 C 0,7 km/h (0 Bft)
15.03.2013 00:00 -5,5 C 92 % 1013,9 hPa 0,0 l/m 0,0 km/h (0 Bft) N -6,6 C -5,5 C 0,0 km/h (0 Bft)
15.03.2013 01:00 -5,4 C 93 % 1014,0 hPa 0,0 l/m 0,0 km/h (0 Bft) N -6,4 C -5,4 C 0,0 km/h (0 Bft)
15.03.2013 02:00 -5,8 C 93 % 1013,9 hPa 0,0 l/m 0,0 km/h (0 Bft) N -6,8 C -5,8 C 0,0 km/h (0 Bft)
15.03.2013 03:00 -6,0 C 94 % 1014,0 hPa 0,0 l/m 0,0 km/h (0 Bft) N -6,8 C -6,0 C 0,4 km/h (0 Bft)
15.03.2013 04:00 -5,6 C 94 % 1014,2 hPa 0,0 l/m 0,1 km/h (0 Bft) N -6,4 C -5,6 C 0,7 km/h (0 Bft)
15.03.2013 05:00 -6,0 C 93 % 1014,6 hPa 0,0 l/m 0,0 km/h (0 Bft) N -6,9 C -6,0 C 0,1 km/h (0 Bft)
15.03.2013 06:00 -6,3 C 94 % 1015,1 hPa 0,0 l/m 0,0 km/h (0 Bft) N -7,1 C -6,3 C 0,0 km/h (0 Bft)
15.03.2013 07:00 -7,0 C 93 % 1015,6 hPa 0,0 l/m 0,0 km/h (0 Bft) N -7,9 C -7,0 C 0,0 km/h (0 Bft)
15.03.2013 08:00 -4,8 C 92 % 1016,1 hPa 0,0 l/m 0,7 km/h (0 Bft) S-SW -6,0 C -4,8 C 2,1 km/h (1 Bft)
15.03.2013 09:00 -2,7 C 83 % 1016,5 hPa 0,0 l/m 1,5 km/h (1 Bft) SW -5,1 C -2,7 C 4,1 km/h (1 Bft)
15.03.2013 10:00 -1,2 C 75 % 1016,8 hPa 0,4 l/m 2,8 km/h (1 Bft) S-SW -5,0 C -1,2 C 6,7 km/h (2 Bft)
15.03.2013 11:00 -0,2 C 70 % 1016,9 hPa 0,4 l/m 2,3 km/h (1 Bft) S-SW -5,1 C -0,2 C 7,1 km/h (2 Bft)
15.03.2013 12:00 0,5 C 61 % 1016,8 hPa 0,2 l/m 2,5 km/h (1 Bft) SW -6,1 C 0,5 C 6,1 km/h (2 Bft)
15.03.2013 13:00 0,8 C 58 % 1016,5 hPa 0,2 l/m 2,0 km/h (1 Bft) W-NW -6,4 C 0,8 C 6,1 km/h (2 Bft)
15.03.2013 14:00 1,6 C 55 % 1016,4 hPa 0,2 l/m 2,5 km/h (1 Bft) SW -6,4 C 1,6 C 6,0 km/h (2 Bft)
15.03.2013 15:00 1,6 C 52 % 1016,3 hPa 0,0 l/m 2,0 km/h (1 Bft) SW -7,1 C 1,6 C 5,7 km/h (2 Bft)
15.03.2013 16:00 1,0 C 55 % 1016,3 hPa 0,0 l/m 1,8 km/h (1 Bft) S-SW -7,1 C 1,0 C 4,8 km/h (1 Bft)
15.03.2013 17:00 -0,2 C 60 % 1016,5 hPa 0,0 l/m 3,6 km/h (1 Bft) S-SW -6,9 C -0,2 C 7,5 km/h (2 Bft)
15.03.2013 18:00 -2,0 C 66 % 1017,0 hPa 0,0 l/m 0,8 km/h (0 Bft) S-SW -7,4 C -2,0 C 1,9 km/h (1 Bft)
15.03.2013 19:00 -4,0 C 73 % 1017,4 hPa 0,0 l/m 0,0 km/h (0 Bft) N -8,0 C -4,0 C 0,0 km/h (0 Bft)
15.03.2013 20:00 -5,9 C 82 % 1017,6 hPa 0,0 l/m 0,0 km/h (0 Bft) N -8,5 C -5,9 C 0,0 km/h (0 Bft)
15.03.2013 21:00 -7,0 C 86 % 1017,7 hPa 0,0 l/m 0,0 km/h (0 Bft) N -8,9 C -7,0 C 0,0 km/h (0 Bft)
15.03.2013 22:00 -7,6 C 89 % 1017,6 hPa 0,0 l/m 0,0 km/h (0 Bft) N -9,1 C -7,6 C 0,0 km/h (0 Bft)
15.03.2013 23:00 -8,1 C 90 % 1017,5 hPa 0,0 l/m 0,0 km/h (0 Bft) N -9,4 C -8,1 C 0,0 km/h (0 Bft)
16.03.2013 00:00 -8,9 C 91 % 1017,3 hPa 0,0 l/m 0,0 km/h (0 Bft) N -10,1 C -8,9 C 0,0 km/h (0 Bft)
16.03.2013 01:00 -9,2 C 93 % 1017,3 hPa 0,0 l/m 0,0 km/h (0 Bft) N -10,2 C -9,2 C 0,3 km/h (0 Bft)
16.03.2013 02:00 -9,1 C 93 % 1017,0 hPa 0,0 l/m 0,0 km/h (0 Bft) N -10,1 C -9,1 C 0,0 km/h (0 Bft)
16.03.2013 03:00 -8,0 C 92 % 1016,6 hPa 0,0 l/m 0,6 km/h (0 Bft) O-SO -9,1 C -8,0 C 2,8 km/h (1 Bft)
16.03.2013 04:00 -6,8 C 87 % 1016,4 hPa 0,0 l/m 0,9 km/h (0 Bft) O-SO -8,6 C -6,8 C 3,1 km/h (1 Bft)
16.03.2013 05:00 -6,0 C 82 % 1016,2 hPa 0,0 l/m 1,5 km/h (1 Bft) O-SO -8,5 C -6,0 C 4,4 km/h (1 Bft)
16.03.2013 06:00 -5,3 C 80 % 1016,1 hPa 0,0 l/m 1,4 km/h (1 Bft) O-SO -8,2 C -5,3 C 4,7 km/h (1 Bft)
16.03.2013 07:00 -4,0 C 77 % 1016,0 hPa 0,0 l/m 3,6 km/h (1 Bft) SO -7,5 C -4,0 C 8,7 km/h (2 Bft)
16.03.2013 08:00 -2,2 C 73 % 1015,9 hPa 0,0 l/m 5,2 km/h (1 Bft) SO -6,3 C -2,2 C 11,7 km/h (2 Bft)
16.03.2013 09:00 -0,5 C 71 % 1016,0 hPa 0,0 l/m 6,1 km/h (2 Bft) SO -5,1 C -0,7 C 12,9 km/h (3 Bft)
16.03.2013 10:00 1,6 C 66 % 1015,8 hPa 0,0 l/m 7,3 km/h (2 Bft) S -4,2 C 0,6 C 14,9 km/h (3 Bft)
16.03.2013 11:00 3,5 C 60 % 1015,4 hPa 0,0 l/m 7,6 km/h (2 Bft) S-SO -3,5 C 2,4 C 14,6 km/h (3 Bft)
16.03.2013 12:00 4,2 C 59 % 1015,2 hPa 0,0 l/m 8,5 km/h (2 Bft) S-SO -3,1 C 2,4 C 17,4 km/h (3 Bft)
16.03.2013 13:00 4,7 C 57 % 1014,8 hPa 0,0 l/m 9,3 km/h (2 Bft) SO -3,0 C 2,3 C 17,8 km/h (3 Bft)
16.03.2013 14:00 4,5 C 59 % 1014,5 hPa 0,0 l/m 8,6 km/h (2 Bft) O-SO -2,9 C 2,6 C 17,3 km/h (3 Bft)
16.03.2013 15:00 4,9 C 59 % 1014,0 hPa 0,0 l/m 7,7 km/h (2 Bft) S-SO -2,5 C 3,8 C 15,7 km/h (3 Bft)
16.03.2013 16:00 4,7 C 61 % 1013,5 hPa 0,0 l/m 8,3 km/h (2 Bft) SO -2,2 C 3,1 C 17,3 km/h (3 Bft)
16.03.2013 17:00 3,6 C 64 % 1013,4 hPa 0,0 l/m 7,4 km/h (2 Bft) S -2,6 C 2,5 C 16,5 km/h (3 Bft)
16.03.2013 18:00 2,6 C 69 % 1013,5 hPa 0,0 l/m 7,9 km/h (2 Bft) SO -2,5 C 1,2 C 16,9 km/h (3 Bft)
16.03.2013 19:00 2,0 C 73 % 1013,4 hPa 0,0 l/m 8,7 km/h (2 Bft) S-SO -2,4 C -0,2 C 17,0 km/h (3 Bft)
16.03.2013 20:00 1,7 C 71 % 1013,0 hPa 0,0 l/m 9,3 km/h (2 Bft) SO -3,1 C -0,9 C 18,9 km/h (3 Bft)
16.03.2013 21:00 0,9 C 71 % 1012,5 hPa 0,0 l/m 8,3 km/h (2 Bft) O-SO -3,7 C -1,0 C 16,8 km/h (3 Bft)
16.03.2013 22:00 0,5 C 71 % 1012,1 hPa 0,0 l/m 7,0 km/h (2 Bft) SO -4,2 C -0,2 C 13,8 km/h (3 Bft)
16.03.2013 23:00 0,4 C 72 % 1011,4 hPa 0,0 l/m 8,9 km/h (2 Bft) SO -4,1 C -2,0 C 17,0 km/h (3 Bft)
17.03.2013 00:00 0,4 C 72 % 1011,2 hPa 0,0 l/m 7,8 km/h (2 Bft) SO -4,0 C -1,1 C 15,4 km/h (3 Bft)
17.03.2013 01:00 0,1 C 72 % 1011,0 hPa 0,0 l/m 8,7 km/h (2 Bft) S-SO -4,4 C -2,2 C 17,2 km/h (3 Bft)
17.03.2013 02:00 -0,1 C 71 % 1010,4 hPa 0,0 l/m 9,9 km/h (2 Bft) SO -4,8 C -3,5 C 19,6 km/h (3 Bft)
17.03.2013 03:00 0,0 C 68 % 1009,7 hPa 0,0 l/m 8,6 km/h (2 Bft) O-SO -5,1 C -2,1 C 18,2 km/h (3 Bft)
17.03.2013 04:00 -0,5 C 68 % 1009,1 hPa 0,0 l/m 8,4 km/h (2 Bft) S-SO -5,6 C -2,5 C 16,8 km/h (3 Bft)
17.03.2013 05:00 -0,9 C 69 % 1008,7 hPa 0,0 l/m 7,4 km/h (2 Bft) SO -6,0 C -2,0 C 16,0 km/h (3 Bft)
17.03.2013 06:00 -1,2 C 68 % 1008,3 hPa 0,0 l/m 8,4 km/h (2 Bft) O-SO -6,4 C -3,2 C 16,0 km/h (3 Bft)
17.03.2013 07:00 -0,9 C 66 % 1007,9 hPa 0,0 l/m 10,6 km/h (2 Bft) S-SO -6,5 C -4,8 C 21,3 km/h (4 Bft)
17.03.2013 08:00 -0,3 C 63 % 1007,9 hPa 0,0 l/m 10,3 km/h (2 Bft) S-SO -6,4 C -3,9 C 21,8 km/h (4 Bft)
17.03.2013 09:00 -0,0 C 62 % 1007,8 hPa 0,0 l/m 10,7 km/h (2 Bft) SO -6,5 C -4,0 C 21,4 km/h (4 Bft)
17.03.2013 10:00 0,6 C 60 % 1007,4 hPa 0,0 l/m 11,6 km/h (2 Bft) O-SO -6,2 C -4,0 C 24,3 km/h (4 Bft)
17.03.2013 11:00 1,5 C 57 % 1007,2 hPa 0,0 l/m 11,6 km/h (2 Bft) O-SO -6,1 C -2,9 C 24,3 km/h (4 Bft)
17.03.2013 12:00 1,8 C 56 % 1006,8 hPa 0,0 l/m 12,5 km/h (2 Bft) SO -6,1 C -3,2 C 25,5 km/h (4 Bft)
17.03.2013 13:00 2,5 C 54 % 1006,0 hPa 0,0 l/m 12,0 km/h (2 Bft) SO -5,8 C -2,1 C 24,3 km/h (4 Bft)
17.03.2013 14:00 2,9 C 53 % 1005,4 hPa 0,0 l/m 10,5 km/h (2 Bft) SO -5,8 C -0,5 C 22,0 km/h (4 Bft)
17.03.2013 15:00 3,3 C 51 % 1004,9 hPa 0,0 l/m 10,2 km/h (2 Bft) S-SO -5,8 C 0,2 C 20,0 km/h (4 Bft)
17.03.2013 16:00 3,7 C 51 % 1004,2 hPa 0,0 l/m 9,7 km/h (2 Bft) SO -5,5 C 1,0 C 18,6 km/h (3 Bft)
17.03.2013 17:00 3,3 C 55 % 1003,9 hPa 0,0 l/m 8,9 km/h (2 Bft) O-SO -4,8 C 1,0 C 17,2 km/h (3 Bft)
17.03.2013 18:00 2,8 C 58 % 1003,6 hPa 0,0 l/m 10,0 km/h (2 Bft) O -4,7 C -0,3 C 17,0 km/h (3 Bft)
17.03.2013 19:00 2,4 C 61 % 1003,6 hPa 0,0 l/m 11,0 km/h (2 Bft) O -4,3 C -1,5 C 20,1 km/h (4 Bft)
17.03.2013 20:00 2,0 C 62 % 1003,4 hPa 0,0 l/m 13,1 km/h (3 Bft) O -4,4 C -3,3 C 23,0 km/h (4 Bft)
17.03.2013 21:00 1,7 C 65 % 1002,8 hPa 0,0 l/m 11,7 km/h (2 Bft) O-SO -4,2 C -2,8 C 20,2 km/h (4 Bft)
17.03.2013 22:00 1,5 C 68 % 1002,0 hPa 0,0 l/m 11,6 km/h (2 Bft) O-SO -3,8 C -2,9 C 22,0 km/h (4 Bft)
17.03.2013 23:00 0,9 C 77 % 1001,4 hPa 0,0 l/m 13,9 km/h (3 Bft) O -2,7 C -5,2 C 27,3 km/h (5 Bft)
Min-Datum _ 13.03.13 15.03.13 17.03.13 - 12.03.13 - 13.03.13 13.03.13 12.03.13
_ Min-Zeit 06:35 15:30 23:50 - 18:50 - 06:35 06:35 02:45
Minimum _ -14,8 C 50 % 1001,1 hPa - 0,0 km/h (0 Bft) - -16,1 C -14,8 C 0,0 km/h (0 Bft)
Max-Datum _ 16.03.13 14.03.13 15.03.13 14.03.13 17.03.13 - 12.03.13 16.03.13 17.03.13
_ Max-Zeit 16:10 07:00 20:35 13:00 23:25 - 02:45 15:05 23:25
Maximum _ 5,1 C 95 % 1017,7 hPa 1,0 l/m 18,7 km/h
O (3 Bft)
- -0,4 C 5,0 C 38,6 km/h
O (6 Bft)
Durchschnitt _ -2,9 C 79 % 1010,0 hPa #4,4 l/m 5,0 km/h (1 Bft) NO -6,2 C -4,3 C 8,5 km/h (2 Bft)